Terminal Aerodrome Forecast
Issued by NWS Paducah, KY

Home | Current Version | Previous Version | Text Only | Print | Product List | Glossary On
Versions: 1 2 3 4 5 6 7 8 9 10 11 12 13 14 15 16 17 18 19 20
701
FTUS43 KPAH 271720
TAFPAH
TAF
KPAH 271720Z 2718/2818 21011G18KT 6SM -TSRA SCT025CB BKN040
      TEMPO 2718/2722 2SM TSRA BR OVC025CB
     FM280100 32004KT P6SM BKN035
     FM280700 34006KT 4SM BR OVC015
     FM281400 01007KT P6SM BKN020=

USA.gov is the U.S. government's official web portal to all federal, state and local government web resources and services.